sensor_id;sensor_type;location;lat;lon;timestamp;P1;durP1;ratioP1;P2;durP2;ratioP2
1685;SDS011;840;47.980;7.830;2024-01-25T00:00:25;7.00;;;1.10;;
1685;SDS011;840;47.980;7.830;2024-01-25T00:02:52;8.50;;;0.70;;
1685;SDS011;840;47.980;7.830;2024-01-25T00:05:19;3.47;;;1.30;;
1685;SDS011;840;47.980;7.830;2024-01-25T00:07:46;2.60;;;1.10;;
1685;SDS011;840;47.980;7.830;2024-01-25T00:10:15;1.30;;;1.03;;
1685;SDS011;840;47.980;7.830;2024-01-25T00:12:43;1.63;;;1.03;;
1685;SDS011;840;47.980;7.830;2024-01-25T00:15:09;2.30;;;1.00;;
1685;SDS011;840;47.980;7.830;2024-01-25T00:17:36;3.40;;;1.10;;
1685;SDS011;840;47.980;7.830;2024-01-25T00:20:03;1.73;;;1.20;;
1685;SDS011;840;47.980;7.830;2024-01-25T00:22:31;1.23;;;0.80;;
1685;SDS011;840;47.980;7.830;2024-01-25T00:24:58;3.43;;;1.00;;
1685;SDS011;840;47.980;7.830;2024-01-25T00:27:26;3.20;;;1.20;;
1685;SDS011;840;47.980;7.830;2024-01-25T00:29:52;1.90;;;1.23;;
1685;SDS011;840;47.980;7.830;2024-01-25T00:32:19;1.83;;;1.33;;
1685;SDS011;840;47.980;7.830;2024-01-25T00:34:46;2.77;;;1.30;;
1685;SDS011;840;47.980;7.830;2024-01-25T00:37:13;3.33;;;1.30;;
1685;SDS011;840;47.980;7.830;2024-01-25T00:39:40;3.33;;;2.10;;
1685;SDS011;840;47.980;7.830;2024-01-25T00:42:07;4.13;;;2.17;;
1685;SDS011;840;47.980;7.830;2024-01-25T00:44:40;1.43;;;1.07;;
1685;SDS011;840;47.980;7.830;2024-01-25T00:47:08;2.30;;;1.37;;
1685;SDS011;840;47.980;7.830;2024-01-25T00:49:35;2.57;;;1.67;;
1685;SDS011;840;47.980;7.830;2024-01-25T00:52:02;2.90;;;1.40;;
1685;SDS011;840;47.980;7.830;2024-01-25T00:54:30;4.33;;;1.67;;
1685;SDS011;840;47.980;7.830;2024-01-25T00:56:57;2.87;;;1.30;;
1685;SDS011;840;47.980;7.830;2024-01-25T00:59:25;2.20;;;0.90;;
1685;SDS011;840;47.980;7.830;2024-01-25T01:01:53;3.93;;;1.17;;
1685;SDS011;840;47.980;7.830;2024-01-25T01:04:23;2.27;;;1.23;;
1685;SDS011;840;47.980;7.830;2024-01-25T01:06:51;3.30;;;1.10;;
1685;SDS011;840;47.980;7.830;2024-01-25T01:09:18;2.60;;;1.27;;
1685;SDS011;840;47.980;7.830;2024-01-25T01:11:44;5.57;;;1.17;;
1685;SDS011;840;47.980;7.830;2024-01-25T01:14:11;2.40;;;1.33;;
1685;SDS011;840;47.980;7.830;2024-01-25T01:16:38;1.83;;;1.43;;
1685;SDS011;840;47.980;7.830;2024-01-25T01:19:06;2.97;;;1.47;;
1685;SDS011;840;47.980;7.830;2024-01-25T01:21:33;1.40;;;1.20;;
1685;SDS011;840;47.980;7.830;2024-01-25T01:24:00;2.30;;;1.03;;
1685;SDS011;840;47.980;7.830;2024-01-25T01:26:26;2.10;;;1.00;;
1685;SDS011;840;47.980;7.830;2024-01-25T01:28:53;2.80;;;1.23;;
1685;SDS011;840;47.980;7.830;2024-01-25T01:31:20;2.40;;;1.10;;
1685;SDS011;840;47.980;7.830;2024-01-25T01:33:47;3.03;;;1.73;;
1685;SDS011;840;47.980;7.830;2024-01-25T01:36:15;3.47;;;1.30;;
1685;SDS011;840;47.980;7.830;2024-01-25T01:38:41;5.83;;;1.40;;
1685;SDS011;840;47.980;7.830;2024-01-25T01:41:09;2.57;;;1.37;;
1685;SDS011;840;47.980;7.830;2024-01-25T01:43:36;5.07;;;2.43;;
1685;SDS011;840;47.980;7.830;2024-01-25T01:46:04;2.90;;;1.40;;
1685;SDS011;840;47.980;7.830;2024-01-25T01:48:35;2.00;;;0.87;;
1685;SDS011;840;47.980;7.830;2024-01-25T01:51:02;1.97;;;1.20;;
1685;SDS011;840;47.980;7.830;2024-01-25T01:53:31;2.13;;;1.50;;
1685;SDS011;840;47.980;7.830;2024-01-25T01:55:59;3.83;;;1.47;;
1685;SDS011;840;47.980;7.830;2024-01-25T01:58:26;2.30;;;1.30;;
1685;SDS011;840;47.980;7.830;2024-01-25T02:00:54;3.17;;;1.50;;
1685;SDS011;840;47.980;7.830;2024-01-25T02:03:22;2.67;;;1.63;;
1685;SDS011;840;47.980;7.830;2024-01-25T02:05:48;3.40;;;1.60;;
1685;SDS011;840;47.980;7.830;2024-01-25T02:08:15;1.37;;;1.27;;
1685;SDS011;840;47.980;7.830;2024-01-25T02:10:43;3.47;;;1.13;;
1685;SDS011;840;47.980;7.830;2024-01-25T02:13:10;5.40;;;1.50;;
1685;SDS011;840;47.980;7.830;2024-01-25T02:15:36;3.37;;;1.00;;
1685;SDS011;840;47.980;7.830;2024-01-25T02:18:04;5.00;;;1.50;;
1685;SDS011;840;47.980;7.830;2024-01-25T02:20:32;3.80;;;1.37;;
1685;SDS011;840;47.980;7.830;2024-01-25T02:23:02;4.30;;;1.40;;
1685;SDS011;840;47.980;7.830;2024-01-25T02:25:29;6.73;;;1.90;;
1685;SDS011;840;47.980;7.830;2024-01-25T02:27:56;2.63;;;1.10;;
1685;SDS011;840;47.980;7.830;2024-01-25T02:30:22;3.43;;;1.40;;
1685;SDS011;840;47.980;7.830;2024-01-25T02:32:49;3.17;;;1.30;;
1685;SDS011;840;47.980;7.830;2024-01-25T02:35:16;9.83;;;1.33;;
1685;SDS011;840;47.980;7.830;2024-01-25T02:37:42;2.70;;;1.00;;
1685;SDS011;840;47.980;7.830;2024-01-25T02:40:11;2.83;;;0.93;;
1685;SDS011;840;47.980;7.830;2024-01-25T02:42:38;1.60;;;1.17;;
1685;SDS011;840;47.980;7.830;2024-01-25T02:45:05;3.60;;;1.60;;
1685;SDS011;840;47.980;7.830;2024-01-25T02:47:32;4.13;;;1.67;;
1685;SDS011;840;47.980;7.830;2024-01-25T02:49:59;2.40;;;1.20;;
1685;SDS011;840;47.980;7.830;2024-01-25T02:52:26;2.73;;;2.03;;
1685;SDS011;840;47.980;7.830;2024-01-25T02:54:52;9.33;;;1.90;;
1685;SDS011;840;47.980;7.830;2024-01-25T02:57:20;4.83;;;1.73;;
1685;SDS011;840;47.980;7.830;2024-01-25T02:59:47;1.13;;;0.93;;
1685;SDS011;840;47.980;7.830;2024-01-25T03:02:14;5.27;;;1.80;;
1685;SDS011;840;47.980;7.830;2024-01-25T03:04:42;2.00;;;1.20;;
1685;SDS011;840;47.980;7.830;2024-01-25T03:07:08;4.67;;;1.30;;
1685;SDS011;840;47.980;7.830;2024-01-25T03:09:35;1.53;;;0.83;;
1685;SDS011;840;47.980;7.830;2024-01-25T03:12:02;2.63;;;0.90;;
1685;SDS011;840;47.980;7.830;2024-01-25T03:14:30;4.03;;;1.63;;
1685;SDS011;840;47.980;7.830;2024-01-25T03:16:56;2.50;;;1.33;;
1685;SDS011;840;47.980;7.830;2024-01-25T03:19:23;2.60;;;1.00;;
1685;SDS011;840;47.980;7.830;2024-01-25T03:21:51;2.37;;;0.90;;
1685;SDS011;840;47.980;7.830;2024-01-25T03:24:17;0.87;;;0.87;;
1685;SDS011;840;47.980;7.830;2024-01-25T03:26:44;1.40;;;0.80;;
1685;SDS011;840;47.980;7.830;2024-01-25T03:29:11;5.23;;;1.47;;
1685;SDS011;840;47.980;7.830;2024-01-25T03:31:39;2.20;;;1.17;;
1685;SDS011;840;47.980;7.830;2024-01-25T03:34:06;1.50;;;1.10;;
1685;SDS011;840;47.980;7.830;2024-01-25T03:36:33;1.17;;;0.77;;
1685;SDS011;840;47.980;7.830;2024-01-25T03:39:04;4.30;;;1.10;;
1685;SDS011;840;47.980;7.830;2024-01-25T03:41:32;2.73;;;1.40;;
1685;SDS011;840;47.980;7.830;2024-01-25T03:43:58;2.33;;;1.33;;
1685;SDS011;840;47.980;7.830;2024-01-25T03:46:25;4.03;;;1.03;;
1685;SDS011;840;47.980;7.830;2024-01-25T03:48:53;1.13;;;0.90;;
1685;SDS011;840;47.980;7.830;2024-01-25T03:51:20;1.20;;;1.10;;
1685;SDS011;840;47.980;7.830;2024-01-25T03:53:49;4.47;;;1.57;;
1685;SDS011;840;47.980;7.830;2024-01-25T03:56:17;1.70;;;1.07;;
1685;SDS011;840;47.980;7.830;2024-01-25T03:58:44;2.67;;;1.20;;
1685;SDS011;840;47.980;7.830;2024-01-25T04:01:11;4.30;;;1.47;;
1685;SDS011;840;47.980;7.830;2024-01-25T04:03:38;7.23;;;1.67;;
1685;SDS011;840;47.980;7.830;2024-01-25T04:06:05;3.50;;;1.60;;
1685;SDS011;840;47.980;7.830;2024-01-25T04:08:32;5.53;;;2.37;;
1685;SDS011;840;47.980;7.830;2024-01-25T04:10:59;5.17;;;2.83;;
1685;SDS011;840;47.980;7.830;2024-01-25T04:13:26;2.27;;;1.80;;
1685;SDS011;840;47.980;7.830;2024-01-25T04:15:52;4.10;;;2.07;;
1685;SDS011;840;47.980;7.830;2024-01-25T04:18:19;5.57;;;2.83;;
1685;SDS011;840;47.980;7.830;2024-01-25T04:20:46;2.50;;;2.27;;
1685;SDS011;840;47.980;7.830;2024-01-25T04:23:14;6.03;;;2.20;;
1685;SDS011;840;47.980;7.830;2024-01-25T04:25:41;4.67;;;1.87;;
1685;SDS011;840;47.980;7.830;2024-01-25T04:28:07;3.90;;;2.20;;
1685;SDS011;840;47.980;7.830;2024-01-25T04:30:34;3.57;;;1.77;;
1685;SDS011;840;47.980;7.830;2024-01-25T04:33:01;3.00;;;1.93;;
1685;SDS011;840;47.980;7.830;2024-01-25T04:35:28;1.93;;;1.20;;
1685;SDS011;840;47.980;7.830;2024-01-25T04:37:56;1.70;;;1.00;;
1685;SDS011;840;47.980;7.830;2024-01-25T04:40:24;1.97;;;1.27;;
1685;SDS011;840;47.980;7.830;2024-01-25T04:42:51;2.53;;;1.07;;
1685;SDS011;840;47.980;7.830;2024-01-25T04:45:18;4.50;;;1.20;;
1685;SDS011;840;47.980;7.830;2024-01-25T04:47:44;2.40;;;1.23;;
1685;SDS011;840;47.980;7.830;2024-01-25T04:50:11;1.83;;;1.67;;
1685;SDS011;840;47.980;7.830;2024-01-25T04:52:38;1.13;;;0.97;;
1685;SDS011;840;47.980;7.830;2024-01-25T04:55:05;1.83;;;0.93;;
1685;SDS011;840;47.980;7.830;2024-01-25T04:57:33;5.13;;;1.33;;
1685;SDS011;840;47.980;7.830;2024-01-25T05:00:00;2.33;;;0.93;;
1685;SDS011;840;47.980;7.830;2024-01-25T05:02:27;1.20;;;0.80;;
1685;SDS011;840;47.980;7.830;2024-01-25T05:04:54;1.90;;;1.20;;
1685;SDS011;840;47.980;7.830;2024-01-25T05:07:20;1.10;;;1.00;;
1685;SDS011;840;47.980;7.830;2024-01-25T05:09:47;1.10;;;0.83;;
1685;SDS011;840;47.980;7.830;2024-01-25T05:12:14;1.67;;;1.07;;
1685;SDS011;840;47.980;7.830;2024-01-25T05:14:42;3.20;;;1.10;;
1685;SDS011;840;47.980;7.830;2024-01-25T05:17:09;1.80;;;0.90;;
1685;SDS011;840;47.980;7.830;2024-01-25T05:19:36;2.20;;;0.90;;
1685;SDS011;840;47.980;7.830;2024-01-25T05:22:02;1.70;;;1.60;;
1685;SDS011;840;47.980;7.830;2024-01-25T05:24:31;5.37;;;0.70;;
1685;SDS011;840;47.980;7.830;2024-01-25T05:26:58;2.20;;;1.30;;
1685;SDS011;840;47.980;7.830;2024-01-25T05:29:24;1.50;;;1.00;;
1685;SDS011;840;47.980;7.830;2024-01-25T05:31:52;1.43;;;0.93;;
1685;SDS011;840;47.980;7.830;2024-01-25T05:34:19;1.27;;;1.00;;
1685;SDS011;840;47.980;7.830;2024-01-25T05:36:46;1.40;;;0.77;;
1685;SDS011;840;47.980;7.830;2024-01-25T05:39:13;3.20;;;1.37;;
1685;SDS011;840;47.980;7.830;2024-01-25T05:41:39;1.37;;;0.80;;
1685;SDS011;840;47.980;7.830;2024-01-25T05:44:06;1.60;;;0.63;;
1685;SDS011;840;47.980;7.830;2024-01-25T05:46:33;1.83;;;1.20;;
1685;SDS011;840;47.980;7.830;2024-01-25T05:49:01;2.27;;;0.83;;
1685;SDS011;840;47.980;7.830;2024-01-25T05:51:28;2.43;;;0.77;;
1685;SDS011;840;47.980;7.830;2024-01-25T05:53:54;0.87;;;0.87;;
1685;SDS011;840;47.980;7.830;2024-01-25T05:56:21;2.53;;;1.20;;
1685;SDS011;840;47.980;7.830;2024-01-25T05:58:48;1.17;;;0.80;;
1685;SDS011;840;47.980;7.830;2024-01-25T06:01:14;1.40;;;0.67;;
1685;SDS011;840;47.980;7.830;2024-01-25T06:03:42;3.23;;;1.10;;
1685;SDS011;840;47.980;7.830;2024-01-25T06:06:10;1.00;;;0.77;;
1685;SDS011;840;47.980;7.830;2024-01-25T06:08:36;2.03;;;0.80;;
1685;SDS011;840;47.980;7.830;2024-01-25T06:11:03;2.77;;;0.70;;
1685;SDS011;840;47.980;7.830;2024-01-25T06:13:30;1.57;;;0.53;;
1685;SDS011;840;47.980;7.830;2024-01-25T06:15:57;1.23;;;0.60;;
1685;SDS011;840;47.980;7.830;2024-01-25T06:18:25;2.30;;;0.80;;
1685;SDS011;840;47.980;7.830;2024-01-25T06:20:52;2.67;;;1.93;;
1685;SDS011;840;47.980;7.830;2024-01-25T06:23:21;4.40;;;1.00;;
1685;SDS011;840;47.980;7.830;2024-01-25T06:25:47;2.17;;;1.20;;
1685;SDS011;840;47.980;7.830;2024-01-25T06:28:14;1.20;;;0.70;;
1685;SDS011;840;47.980;7.830;2024-01-25T06:30:41;2.40;;;1.13;;
1685;SDS011;840;47.980;7.830;2024-01-25T06:33:08;2.20;;;0.80;;
1685;SDS011;840;47.980;7.830;2024-01-25T06:35:34;2.23;;;0.90;;
1685;SDS011;840;47.980;7.830;2024-01-25T06:38:01;0.73;;;0.50;;
1685;SDS011;840;47.980;7.830;2024-01-25T06:40:29;2.87;;;0.70;;
1685;SDS011;840;47.980;7.830;2024-01-25T06:42:56;0.77;;;0.63;;
1685;SDS011;840;47.980;7.830;2024-01-25T06:45:23;2.43;;;0.60;;
1685;SDS011;840;47.980;7.830;2024-01-25T06:47:49;0.80;;;0.77;;
1685;SDS011;840;47.980;7.830;2024-01-25T06:50:16;1.40;;;0.90;;
1685;SDS011;840;47.980;7.830;2024-01-25T06:52:43;6.03;;;0.93;;
1685;SDS011;840;47.980;7.830;2024-01-25T06:55:10;0.60;;;0.60;;
1685;SDS011;840;47.980;7.830;2024-01-25T06:57:38;2.63;;;1.10;;
1685;SDS011;840;47.980;7.830;2024-01-25T07:00:05;4.67;;;1.67;;
1685;SDS011;840;47.980;7.830;2024-01-25T07:02:33;1.67;;;0.97;;
1685;SDS011;840;47.980;7.830;2024-01-25T07:04:59;4.83;;;1.00;;
1685;SDS011;840;47.980;7.830;2024-01-25T07:07:27;1.23;;;0.80;;
1685;SDS011;840;47.980;7.830;2024-01-25T07:09:54;1.80;;;1.00;;
1685;SDS011;840;47.980;7.830;2024-01-25T07:12:21;0.80;;;0.80;;
1685;SDS011;840;47.980;7.830;2024-01-25T07:14:49;2.67;;;1.00;;
1685;SDS011;840;47.980;7.830;2024-01-25T07:17:15;1.03;;;0.50;;
1685;SDS011;840;47.980;7.830;2024-01-25T07:19:42;0.83;;;0.60;;
1685;SDS011;840;47.980;7.830;2024-01-25T07:22:09;3.93;;;1.87;;
1685;SDS011;840;47.980;7.830;2024-01-25T07:24:36;1.67;;;0.90;;
1685;SDS011;840;47.980;7.830;2024-01-25T07:27:03;0.80;;;0.80;;
1685;SDS011;840;47.980;7.830;2024-01-25T07:29:30;1.00;;;0.53;;
1685;SDS011;840;47.980;7.830;2024-01-25T07:31:58;1.37;;;0.97;;
1685;SDS011;840;47.980;7.830;2024-01-25T07:34:25;1.80;;;0.73;;
1685;SDS011;840;47.980;7.830;2024-01-25T07:36:51;0.53;;;0.53;;
1685;SDS011;840;47.980;7.830;2024-01-25T07:39:18;0.90;;;0.90;;
1685;SDS011;840;47.980;7.830;2024-01-25T07:41:45;1.40;;;0.60;;
1685;SDS011;840;47.980;7.830;2024-01-25T07:44:12;1.20;;;0.70;;
1685;SDS011;840;47.980;7.830;2024-01-25T07:46:38;0.57;;;0.57;;
1685;SDS011;840;47.980;7.830;2024-01-25T07:49:07;1.30;;;0.50;;
1685;SDS011;840;47.980;7.830;2024-01-25T07:51:33;2.60;;;1.10;;
1685;SDS011;840;47.980;7.830;2024-01-25T07:54:00;0.90;;;0.60;;
1685;SDS011;840;47.980;7.830;2024-01-25T07:56:27;1.17;;;1.07;;
1685;SDS011;840;47.980;7.830;2024-01-25T07:58:54;0.90;;;0.80;;
1685;SDS011;840;47.980;7.830;2024-01-25T08:01:21;2.23;;;1.00;;
1685;SDS011;840;47.980;7.830;2024-01-25T08:03:48;1.10;;;0.80;;
1685;SDS011;840;47.980;7.830;2024-01-25T08:06:16;1.00;;;0.60;;
1685;SDS011;840;47.980;7.830;2024-01-25T08:08:43;1.50;;;1.20;;
1685;SDS011;840;47.980;7.830;2024-01-25T08:11:09;3.20;;;1.33;;
1685;SDS011;840;47.980;7.830;2024-01-25T08:13:36;1.77;;;1.07;;
1685;SDS011;840;47.980;7.830;2024-01-25T08:16:03;4.77;;;1.77;;
1685;SDS011;840;47.980;7.830;2024-01-25T08:18:30;1.40;;;1.00;;
1685;SDS011;840;47.980;7.830;2024-01-25T08:20:57;2.30;;;1.40;;
1685;SDS011;840;47.980;7.830;2024-01-25T08:23:27;5.80;;;2.47;;
1685;SDS011;840;47.980;7.830;2024-01-25T08:25:53;1.33;;;1.20;;
1685;SDS011;840;47.980;7.830;2024-01-25T08:28:20;0.63;;;0.63;;
1685;SDS011;840;47.980;7.830;2024-01-25T08:30:47;0.83;;;0.70;;
1685;SDS011;840;47.980;7.830;2024-01-25T08:33:15;3.23;;;1.00;;
1685;SDS011;840;47.980;7.830;2024-01-25T08:35:42;2.00;;;0.80;;
1685;SDS011;840;47.980;7.830;2024-01-25T08:38:09;0.97;;;0.87;;
1685;SDS011;840;47.980;7.830;2024-01-25T08:40:37;0.70;;;0.50;;
1685;SDS011;840;47.980;7.830;2024-01-25T08:43:03;0.67;;;0.40;;
1685;SDS011;840;47.980;7.830;2024-01-25T08:45:30;0.73;;;0.50;;
1685;SDS011;840;47.980;7.830;2024-01-25T08:47:57;15.53;;;7.43;;
1685;SDS011;840;47.980;7.830;2024-01-25T08:50:24;10.10;;;5.50;;
1685;SDS011;840;47.980;7.830;2024-01-25T08:52:51;6.13;;;2.80;;
1685;SDS011;840;47.980;7.830;2024-01-25T08:55:18;5.00;;;1.70;;
1685;SDS011;840;47.980;7.830;2024-01-25T08:57:46;2.17;;;1.57;;
1685;SDS011;840;47.980;7.830;2024-01-25T09:00:13;2.40;;;1.43;;
1685;SDS011;840;47.980;7.830;2024-01-25T09:02:40;2.00;;;1.90;;
1685;SDS011;840;47.980;7.830;2024-01-25T09:05:07;1.80;;;1.70;;
1685;SDS011;840;47.980;7.830;2024-01-25T09:07:34;6.40;;;1.67;;
1685;SDS011;840;47.980;7.830;2024-01-25T09:10:01;1.80;;;1.70;;
1685;SDS011;840;47.980;7.830;2024-01-25T09:12:29;2.33;;;1.90;;
1685;SDS011;840;47.980;7.830;2024-01-25T09:14:57;2.93;;;2.00;;
1685;SDS011;840;47.980;7.830;2024-01-25T09:17:24;2.87;;;1.60;;
1685;SDS011;840;47.980;7.830;2024-01-25T09:19:50;9.70;;;5.67;;
1685;SDS011;840;47.980;7.830;2024-01-25T09:22:18;4.60;;;3.33;;
1685;SDS011;840;47.980;7.830;2024-01-25T09:24:45;1.97;;;1.87;;
1685;SDS011;840;47.980;7.830;2024-01-25T09:27:12;3.30;;;3.00;;
1685;SDS011;840;47.980;7.830;2024-01-25T09:29:39;3.07;;;2.77;;
1685;SDS011;840;47.980;7.830;2024-01-25T09:32:07;6.63;;;3.23;;
1685;SDS011;840;47.980;7.830;2024-01-25T09:34:34;6.33;;;4.80;;
1685;SDS011;840;47.980;7.830;2024-01-25T09:37:02;6.57;;;4.10;;
1685;SDS011;840;47.980;7.830;2024-01-25T09:39:29;3.43;;;3.00;;
1685;SDS011;840;47.980;7.830;2024-01-25T09:41:57;4.53;;;2.63;;
1685;SDS011;840;47.980;7.830;2024-01-25T09:44:23;2.53;;;2.33;;
1685;SDS011;840;47.980;7.830;2024-01-25T09:46:51;3.13;;;2.83;;
1685;SDS011;840;47.980;7.830;2024-01-25T09:49:19;2.10;;;1.90;;
1685;SDS011;840;47.980;7.830;2024-01-25T09:51:46;2.13;;;1.70;;
1685;SDS011;840;47.980;7.830;2024-01-25T09:54:16;1.93;;;1.83;;
1685;SDS011;840;47.980;7.830;2024-01-25T09:56:43;3.20;;;1.97;;
1685;SDS011;840;47.980;7.830;2024-01-25T09:59:10;2.30;;;2.10;;
1685;SDS011;840;47.980;7.830;2024-01-25T10:01:37;2.43;;;1.93;;
1685;SDS011;840;47.980;7.830;2024-01-25T10:04:06;1.70;;;1.60;;
1685;SDS011;840;47.980;7.830;2024-01-25T10:06:35;2.60;;;1.80;;
1685;SDS011;840;47.980;7.830;2024-01-25T10:09:02;2.77;;;1.67;;
1685;SDS011;840;47.980;7.830;2024-01-25T10:11:31;3.13;;;2.00;;
1685;SDS011;840;47.980;7.830;2024-01-25T10:14:00;2.13;;;1.80;;
1685;SDS011;840;47.980;7.830;2024-01-25T10:16:28;2.87;;;1.90;;
1685;SDS011;840;47.980;7.830;2024-01-25T10:18:56;2.33;;;2.17;;
1685;SDS011;840;47.980;7.830;2024-01-25T10:21:22;2.03;;;1.80;;
1685;SDS011;840;47.980;7.830;2024-01-25T10:23:51;2.00;;;1.90;;
1685;SDS011;840;47.980;7.830;2024-01-25T10:26:19;2.33;;;1.60;;
1685;SDS011;840;47.980;7.830;2024-01-25T10:28:50;1.80;;;1.70;;
1685;SDS011;840;47.980;7.830;2024-01-25T10:31:18;1.53;;;1.53;;
1685;SDS011;840;47.980;7.830;2024-01-25T10:33:45;1.53;;;1.40;;
1685;SDS011;840;47.980;7.830;2024-01-25T10:36:13;1.40;;;1.30;;
1685;SDS011;840;47.980;7.830;2024-01-25T10:38:40;1.40;;;1.20;;
1685;SDS011;840;47.980;7.830;2024-01-25T10:41:11;2.13;;;1.30;;
1685;SDS011;840;47.980;7.830;2024-01-25T10:43:39;1.73;;;1.27;;
1685;SDS011;840;47.980;7.830;2024-01-25T10:46:06;0.90;;;0.90;;
1685;SDS011;840;47.980;7.830;2024-01-25T10:48:34;1.57;;;1.37;;
1685;SDS011;840;47.980;7.830;2024-01-25T10:51:02;1.40;;;1.30;;
1685;SDS011;840;47.980;7.830;2024-01-25T10:53:29;1.70;;;1.00;;
1685;SDS011;840;47.980;7.830;2024-01-25T10:55:57;0.73;;;0.70;;
1685;SDS011;840;47.980;7.830;2024-01-25T10:58:30;1.03;;;1.03;;
1685;SDS011;840;47.980;7.830;2024-01-25T11:00:57;1.13;;;0.60;;
1685;SDS011;840;47.980;7.830;2024-01-25T11:03:25;1.17;;;1.00;;
1685;SDS011;840;47.980;7.830;2024-01-25T11:05:52;4.33;;;0.80;;
1685;SDS011;840;47.980;7.830;2024-01-25T11:08:20;1.90;;;0.77;;
1685;SDS011;840;47.980;7.830;2024-01-25T11:10:48;0.50;;;0.50;;
1685;SDS011;840;47.980;7.830;2024-01-25T11:19:34;0.80;;;0.80;;
1685;SDS011;840;47.980;7.830;2024-01-25T11:22:02;2.80;;;0.80;;
1685;SDS011;840;47.980;7.830;2024-01-25T11:24:29;0.80;;;0.80;;
1685;SDS011;840;47.980;7.830;2024-01-25T11:27:03;1.70;;;0.93;;
1685;SDS011;840;47.980;7.830;2024-01-25T11:29:31;1.33;;;1.07;;
1685;SDS011;840;47.980;7.830;2024-01-25T11:31:58;0.50;;;0.50;;
1685;SDS011;840;47.980;7.830;2024-01-25T11:34:25;0.40;;;0.40;;
1685;SDS011;840;47.980;7.830;2024-01-25T11:36:53;0.97;;;0.60;;
1685;SDS011;840;47.980;7.830;2024-01-25T11:39:22;0.60;;;0.60;;
1685;SDS011;840;47.980;7.830;2024-01-25T11:41:50;0.60;;;0.60;;
1685;SDS011;840;47.980;7.830;2024-01-25T11:44:17;1.07;;;0.50;;
1685;SDS011;840;47.980;7.830;2024-01-25T11:46:44;1.00;;;0.53;;
1685;SDS011;840;47.980;7.830;2024-01-25T11:49:11;0.50;;;0.40;;
1685;SDS011;840;47.980;7.830;2024-01-25T11:51:37;2.00;;;1.90;;
1685;SDS011;840;47.980;7.830;2024-01-25T11:54:06;1.13;;;1.03;;
1685;SDS011;840;47.980;7.830;2024-01-25T11:56:33;0.70;;;0.60;;
1685;SDS011;840;47.980;7.830;2024-01-25T11:59:03;0.57;;;0.40;;
1685;SDS011;840;47.980;7.830;2024-01-25T12:01:31;2.00;;;1.60;;
1685;SDS011;840;47.980;7.830;2024-01-25T12:03:58;1.40;;;0.73;;
1685;SDS011;840;47.980;7.830;2024-01-25T12:06:26;2.53;;;1.60;;
1685;SDS011;840;47.980;7.830;2024-01-25T12:08:53;0.80;;;0.60;;
1685;SDS011;840;47.980;7.830;2024-01-25T12:11:21;1.57;;;0.73;;
1685;SDS011;840;47.980;7.830;2024-01-25T12:13:49;0.80;;;0.53;;
1685;SDS011;840;47.980;7.830;2024-01-25T12:16:16;0.40;;;0.40;;
1685;SDS011;840;47.980;7.830;2024-01-25T12:18:43;0.70;;;0.70;;
1685;SDS011;840;47.980;7.830;2024-01-25T12:21:10;1.50;;;0.50;;
1685;SDS011;840;47.980;7.830;2024-01-25T12:23:37;0.53;;;0.43;;
1685;SDS011;840;47.980;7.830;2024-01-25T12:26:05;0.63;;;0.60;;
1685;SDS011;840;47.980;7.830;2024-01-25T12:28:34;0.80;;;0.80;;
1685;SDS011;840;47.980;7.830;2024-01-25T12:31:01;0.67;;;0.67;;
1685;SDS011;840;47.980;7.830;2024-01-25T12:33:29;1.67;;;0.57;;
1685;SDS011;840;47.980;7.830;2024-01-25T12:35:56;1.03;;;0.90;;
1685;SDS011;840;47.980;7.830;2024-01-25T12:38:23;2.97;;;0.77;;
1685;SDS011;840;47.980;7.830;2024-01-25T12:40:51;1.23;;;1.10;;
1685;SDS011;840;47.980;7.830;2024-01-25T12:43:18;0.53;;;0.53;;
1685;SDS011;840;47.980;7.830;2024-01-25T12:45:48;1.63;;;1.03;;
1685;SDS011;840;47.980;7.830;2024-01-25T12:48:15;0.77;;;0.73;;
1685;SDS011;840;47.980;7.830;2024-01-25T12:50:42;1.93;;;1.00;;
1685;SDS011;840;47.980;7.830;2024-01-25T12:53:08;1.30;;;1.20;;
1685;SDS011;840;47.980;7.830;2024-01-25T12:55:37;2.70;;;1.40;;
1685;SDS011;840;47.980;7.830;2024-01-25T12:58:04;1.70;;;1.60;;
1685;SDS011;840;47.980;7.830;2024-01-25T13:00:31;1.60;;;1.30;;
1685;SDS011;840;47.980;7.830;2024-01-25T13:03:00;1.83;;;1.73;;
1685;SDS011;840;47.980;7.830;2024-01-25T13:05:27;3.10;;;1.73;;
1685;SDS011;840;47.980;7.830;2024-01-25T13:07:54;3.20;;;2.80;;
1685;SDS011;840;47.980;7.830;2024-01-25T13:10:21;1.90;;;1.80;;
1685;SDS011;840;47.980;7.830;2024-01-25T13:12:48;3.40;;;2.87;;
1685;SDS011;840;47.980;7.830;2024-01-25T13:15:15;6.33;;;2.40;;
1685;SDS011;840;47.980;7.830;2024-01-25T13:17:42;2.57;;;2.37;;
1685;SDS011;840;47.980;7.830;2024-01-25T13:20:11;2.23;;;2.10;;
1685;SDS011;840;47.980;7.830;2024-01-25T13:22:38;2.07;;;1.87;;
1685;SDS011;840;47.980;7.830;2024-01-25T13:25:05;2.00;;;1.90;;
1685;SDS011;840;47.980;7.830;2024-01-25T13:27:32;2.20;;;2.00;;
1685;SDS011;840;47.980;7.830;2024-01-25T13:29:58;3.10;;;2.17;;
1685;SDS011;840;47.980;7.830;2024-01-25T13:32:25;4.10;;;2.70;;
1685;SDS011;840;47.980;7.830;2024-01-25T13:34:52;3.70;;;2.17;;
1685;SDS011;840;47.980;7.830;2024-01-25T13:37:20;2.03;;;1.90;;
1685;SDS011;840;47.980;7.830;2024-01-25T13:39:47;2.60;;;2.43;;
1685;SDS011;840;47.980;7.830;2024-01-25T13:42:14;5.23;;;2.50;;
1685;SDS011;840;47.980;7.830;2024-01-25T13:44:41;2.50;;;2.30;;
1685;SDS011;840;47.980;7.830;2024-01-25T13:47:08;2.20;;;2.10;;
1685;SDS011;840;47.980;7.830;2024-01-25T13:49:34;2.20;;;1.83;;
1685;SDS011;840;47.980;7.830;2024-01-25T13:52:01;1.83;;;1.73;;
1685;SDS011;840;47.980;7.830;2024-01-25T13:54:30;1.50;;;1.40;;
1685;SDS011;840;47.980;7.830;2024-01-25T13:56:56;3.00;;;2.10;;
1685;SDS011;840;47.980;7.830;2024-01-25T13:59:23;2.43;;;1.60;;
1685;SDS011;840;47.980;7.830;2024-01-25T14:01:50;1.70;;;1.30;;
1685;SDS011;840;47.980;7.830;2024-01-25T14:04:17;1.70;;;1.37;;
1685;SDS011;840;47.980;7.830;2024-01-25T14:06:44;1.63;;;1.53;;
1685;SDS011;840;47.980;7.830;2024-01-25T14:09:12;2.00;;;1.90;;
1685;SDS011;840;47.980;7.830;2024-01-25T14:11:40;1.47;;;1.37;;
1685;SDS011;840;47.980;7.830;2024-01-25T14:14:07;2.30;;;2.10;;
1685;SDS011;840;47.980;7.830;2024-01-25T14:16:34;1.93;;;1.70;;
1685;SDS011;840;47.980;7.830;2024-01-25T14:19:01;1.67;;;1.37;;
1685;SDS011;840;47.980;7.830;2024-01-25T14:21:29;3.50;;;1.77;;
1685;SDS011;840;47.980;7.830;2024-01-25T14:23:55;1.83;;;1.70;;
1685;SDS011;840;47.980;7.830;2024-01-25T14:26:22;2.37;;;1.87;;
1685;SDS011;840;47.980;7.830;2024-01-25T14:28:50;2.30;;;2.10;;
1685;SDS011;840;47.980;7.830;2024-01-25T14:31:17;1.90;;;1.80;;
1685;SDS011;840;47.980;7.830;2024-01-25T14:33:44;1.73;;;1.63;;
1685;SDS011;840;47.980;7.830;2024-01-25T14:36:10;2.23;;;2.13;;
1685;SDS011;840;47.980;7.830;2024-01-25T14:38:39;1.93;;;1.83;;
1685;SDS011;840;47.980;7.830;2024-01-25T14:41:07;2.73;;;2.53;;
1685;SDS011;840;47.980;7.830;2024-01-25T14:43:35;1.97;;;1.70;;
1685;SDS011;840;47.980;7.830;2024-01-25T14:46:04;2.37;;;2.27;;
1685;SDS011;840;47.980;7.830;2024-01-25T14:48:31;2.37;;;1.50;;
1685;SDS011;840;47.980;7.830;2024-01-25T14:50:58;2.38;;;2.13;;
1685;SDS011;840;47.980;7.830;2024-01-25T14:53:24;2.17;;;1.97;;
1685;SDS011;840;47.980;7.830;2024-01-25T14:55:51;3.60;;;2.50;;
1685;SDS011;840;47.980;7.830;2024-01-25T14:58:18;2.00;;;1.80;;
1685;SDS011;840;47.980;7.830;2024-01-25T15:00:47;2.20;;;2.07;;
1685;SDS011;840;47.980;7.830;2024-01-25T15:03:15;2.57;;;2.47;;
1685;SDS011;840;47.980;7.830;2024-01-25T15:05:42;4.73;;;2.90;;
1685;SDS011;840;47.980;7.830;2024-01-25T15:08:08;2.50;;;2.40;;
1685;SDS011;840;47.980;7.830;2024-01-25T15:10:35;4.20;;;2.70;;
1685;SDS011;840;47.980;7.830;2024-01-25T15:13:02;3.83;;;3.13;;
1685;SDS011;840;47.980;7.830;2024-01-25T15:15:29;4.20;;;2.50;;
1685;SDS011;840;47.980;7.830;2024-01-25T15:17:55;2.90;;;2.70;;
1685;SDS011;840;47.980;7.830;2024-01-25T15:20:24;3.03;;;2.73;;
1685;SDS011;840;47.980;7.830;2024-01-25T15:22:51;3.80;;;2.70;;
1685;SDS011;840;47.980;7.830;2024-01-25T15:25:18;2.63;;;2.43;;
1685;SDS011;840;47.980;7.830;2024-01-25T15:27:45;3.03;;;2.83;;
1685;SDS011;840;47.980;7.830;2024-01-25T15:30:12;4.60;;;3.10;;
1685;SDS011;840;47.980;7.830;2024-01-25T15:32:39;3.00;;;2.80;;
1685;SDS011;840;47.980;7.830;2024-01-25T15:35:07;3.47;;;2.90;;